sensor_id;sensor_type;location;lat;lon;timestamp;pressure;altitude;pressure_sealevel;temperature;humidity
47530;BME280;33272;51.922;7.730;2023-03-31T00:02:13;145191.53;;;10.85;100.00
47530;BME280;33272;51.922;7.730;2023-03-31T00:04:40;145173.81;;;10.78;100.00
47530;BME280;33272;51.922;7.730;2023-03-31T00:07:12;145178.84;;;10.80;100.00
47530;BME280;33272;51.922;7.730;2023-03-31T00:09:41;145158.59;;;10.72;100.00
47530;BME280;33272;51.922;7.730;2023-03-31T00:12:11;145159.84;;;10.73;100.00
47530;BME280;33272;51.922;7.730;2023-03-31T00:14:38;145158.59;;;10.72;100.00
47530;BME280;33272;51.922;7.730;2023-03-31T00:17:07;145154.75;;;10.71;100.00
47530;BME280;33272;51.922;7.730;2023-03-31T00:19:34;145162.38;;;10.74;100.00
47530;BME280;33272;51.922;7.730;2023-03-31T00:22:01;145166.19;;;10.75;100.00
47530;BME280;33272;51.922;7.730;2023-03-31T00:24:30;145173.81;;;10.78;100.00
47530;BME280;33272;51.922;7.730;2023-03-31T00:26:58;145175.06;;;10.79;100.00
47530;BME280;33272;51.922;7.730;2023-03-31T00:29:25;145167.47;;;10.76;100.00
47530;BME280;33272;51.922;7.730;2023-03-31T00:31:52;145178.84;;;10.80;100.00
47530;BME280;33272;51.922;7.730;2023-03-31T00:34:21;145175.06;;;10.79;100.00
47530;BME280;33272;51.922;7.730;2023-03-31T00:36:48;145164.88;;;10.75;100.00
47530;BME280;33272;51.922;7.730;2023-03-31T00:39:18;145164.88;;;10.75;100.00
47530;BME280;33272;51.922;7.730;2023-03-31T00:41:45;145169.97;;;10.77;100.00
47530;BME280;33272;51.922;7.730;2023-03-31T00:44:14;145163.63;;;10.74;100.00
47530;BME280;33272;51.922;7.730;2023-03-31T00:46:49;145153.50;;;10.70;100.00
47530;BME280;33272;51.922;7.730;2023-03-31T00:49:24;145151.00;;;10.69;100.00
47530;BME280;33272;51.922;7.730;2023-03-31T00:51:56;145143.38;;;10.66;100.00
47530;BME280;33272;51.922;7.730;2023-03-31T00:54:27;145123.09;;;10.58;100.00
47530;BME280;33272;51.922;7.730;2023-03-31T00:56:56;145109.13;;;10.52;100.00
47530;BME280;33272;51.922;7.730;2023-03-31T00:59:30;145092.66;;;10.46;100.00
47530;BME280;33272;51.922;7.730;2023-03-31T01:01:59;145081.28;;;10.41;100.00
47530;BME280;33272;51.922;7.730;2023-03-31T01:04:32;145067.31;;;10.35;100.00
47530;BME280;33272;51.922;7.730;2023-03-31T01:07:07;145063.50;;;10.34;100.00
47530;BME280;33272;51.922;7.730;2023-03-31T01:09:38;145064.81;;;10.34;100.00
47530;BME280;33272;51.922;7.730;2023-03-31T01:12:08;145067.31;;;10.35;100.00
47530;BME280;33272;51.922;7.730;2023-03-31T01:14:36;145068.59;;;10.36;100.00
47530;BME280;33272;51.922;7.730;2023-03-31T01:17:03;145073.66;;;10.38;100.00
47530;BME280;33272;51.922;7.730;2023-03-31T01:19:49;145080.00;;;10.40;100.00
47530;BME280;33272;51.922;7.730;2023-03-31T01:29:26;145133.22;;;10.62;100.00
47530;BME280;33272;51.922;7.730;2023-03-31T01:35:53;145158.59;;;10.72;100.00
47530;BME280;33272;51.922;7.730;2023-03-31T01:38:56;145169.97;;;10.77;100.00
47530;BME280;33272;51.922;7.730;2023-03-31T01:41:41;145177.59;;;10.80;100.00
47530;BME280;33272;51.922;7.730;2023-03-31T01:44:21;145182.69;;;10.82;100.00
47530;BME280;33272;51.922;7.730;2023-03-31T01:46:54;145180.09;;;10.81;100.00
47530;BME280;33272;51.922;7.730;2023-03-31T01:49:30;145188.97;;;10.84;100.00
47530;BME280;33272;51.922;7.730;2023-03-31T01:52:05;145194.06;;;10.86;100.00
47530;BME280;33272;51.922;7.730;2023-03-31T01:54:38;145195.31;;;10.87;100.00
47530;BME280;33272;51.922;7.730;2023-03-31T01:57:14;145196.56;;;10.87;100.00
47530;BME280;33272;51.922;7.730;2023-03-31T01:59:51;145196.56;;;10.87;100.00
47530;BME280;33272;51.922;7.730;2023-03-31T02:02:27;145197.88;;;10.88;100.00
47530;BME280;33272;51.922;7.730;2023-03-31T02:04:59;145206.75;;;10.92;100.00
47530;BME280;33272;51.922;7.730;2023-03-31T02:07:35;145211.78;;;10.94;100.00
47530;BME280;33272;51.922;7.730;2023-03-31T02:10:07;145219.41;;;10.97;100.00
47530;BME280;33272;51.922;7.730;2023-03-31T02:12:38;145224.50;;;10.99;100.00
47530;BME280;33272;51.922;7.730;2023-03-31T02:15:09;145233.38;;;11.02;100.00
47530;BME280;33272;51.922;7.730;2023-03-31T02:17:38;145244.81;;;11.07;100.00
47530;BME280;33272;51.922;7.730;2023-03-31T02:20:10;145248.59;;;11.08;100.00
47530;BME280;33272;51.922;7.730;2023-03-31T02:22:42;145265.06;;;11.15;100.00
47530;BME280;33272;51.922;7.730;2023-03-31T02:25:14;145263.78;;;11.14;100.00
47530;BME280;33272;51.922;7.730;2023-03-31T02:27:48;145267.63;;;11.16;100.00
47530;BME280;33272;51.922;7.730;2023-03-31T02:30:19;145273.94;;;11.19;100.00
47530;BME280;33272;51.922;7.730;2023-03-31T02:32:46;145277.75;;;11.20;100.00
47530;BME280;33272;51.922;7.730;2023-03-31T02:35:16;145273.94;;;11.19;100.00
47530;BME280;33272;51.922;7.730;2023-03-31T02:37:45;145272.66;;;11.18;100.00
47530;BME280;33272;51.922;7.730;2023-03-31T02:40:18;145260.03;;;11.13;100.00
47530;BME280;33272;51.922;7.730;2023-03-31T02:42:47;145260.03;;;11.13;100.00
47530;BME280;33272;51.922;7.730;2023-03-31T02:45:44;145251.09;;;11.09;100.00
47530;BME280;33272;51.922;7.730;2023-03-31T02:48:16;145262.53;;;11.14;100.00
47530;BME280;33272;51.922;7.730;2023-03-31T02:51:31;145244.81;;;11.07;100.00
47530;BME280;33272;51.922;7.730;2023-03-31T03:00:31;145238.44;;;11.04;100.00
47530;BME280;33272;51.922;7.730;2023-03-31T03:03:21;145244.81;;;11.07;100.00
47530;BME280;33272;51.922;7.730;2023-03-31T03:06:00;145246.06;;;11.07;100.00
47530;BME280;33272;51.922;7.730;2023-03-31T03:08:46;145243.50;;;11.06;100.00
47530;BME280;33272;51.922;7.730;2023-03-31T03:11:25;145247.31;;;11.08;100.00
47530;BME280;33272;51.922;7.730;2023-03-31T03:13:59;145242.22;;;11.06;100.00
47530;BME280;33272;51.922;7.730;2023-03-31T03:16:34;145244.81;;;11.07;100.00
47530;BME280;33272;51.922;7.730;2023-03-31T03:19:05;145248.59;;;11.08;100.00
47530;BME280;33272;51.922;7.730;2023-03-31T03:21:32;145254.94;;;11.11;100.00
47530;BME280;33272;51.922;7.730;2023-03-31T03:23:59;145256.19;;;11.11;100.00
47530;BME280;33272;51.922;7.730;2023-03-31T03:26:27;145252.41;;;11.10;100.00
47530;BME280;33272;51.922;7.730;2023-03-31T03:28:55;145257.44;;;11.12;100.00
47530;BME280;33272;51.922;7.730;2023-03-31T03:31:23;145256.19;;;11.11;100.00
47530;BME280;33272;51.922;7.730;2023-03-31T03:33:52;145257.44;;;11.12;100.00
47530;BME280;33272;51.922;7.730;2023-03-31T03:36:19;145260.03;;;11.13;100.00
47530;BME280;33272;51.922;7.730;2023-03-31T03:38:47;145258.72;;;11.12;100.00
47530;BME280;33272;51.922;7.730;2023-03-31T03:41:14;145258.72;;;11.12;100.00
47530;BME280;33272;51.922;7.730;2023-03-31T03:43:41;145258.72;;;11.12;100.00
47530;BME280;33272;51.922;7.730;2023-03-31T03:46:08;145258.72;;;11.12;100.00
47530;BME280;33272;51.922;7.730;2023-03-31T03:48:35;145258.72;;;11.12;100.00
47530;BME280;33272;51.922;7.730;2023-03-31T03:51:04;145260.03;;;11.13;100.00
47530;BME280;33272;51.922;7.730;2023-03-31T03:53:32;145260.03;;;11.13;100.00
47530;BME280;33272;51.922;7.730;2023-03-31T03:55:59;145256.19;;;11.11;100.00
47530;BME280;33272;51.922;7.730;2023-03-31T03:58:26;145257.44;;;11.12;100.00
47530;BME280;33272;51.922;7.730;2023-03-31T04:00:53;145254.94;;;11.11;100.00
47530;BME280;33272;51.922;7.730;2023-03-31T04:03:21;145253.66;;;11.10;100.00
47530;BME280;33272;51.922;7.730;2023-03-31T04:05:48;145257.44;;;11.12;100.00
47530;BME280;33272;51.922;7.730;2023-03-31T04:08:17;145254.94;;;11.11;100.00
47530;BME280;33272;51.922;7.730;2023-03-31T04:10:45;145254.94;;;11.11;100.00
47530;BME280;33272;51.922;7.730;2023-03-31T04:13:14;145248.59;;;11.08;100.00
47530;BME280;33272;51.922;7.730;2023-03-31T04:15:41;145243.50;;;11.06;100.00
47530;BME280;33272;51.922;7.730;2023-03-31T04:18:09;145235.88;;;11.03;100.00
47530;BME280;33272;51.922;7.730;2023-03-31T04:20:48;145232.09;;;11.02;100.00
47530;BME280;33272;51.922;7.730;2023-03-31T04:23:21;145230.84;;;11.01;100.00
47530;BME280;33272;51.922;7.730;2023-03-31T04:25:51;145230.84;;;11.01;100.00
47530;BME280;33272;51.922;7.730;2023-03-31T04:28:18;145233.38;;;11.02;100.00
47530;BME280;33272;51.922;7.730;2023-03-31T04:30:45;145232.09;;;11.02;100.00
47530;BME280;33272;51.922;7.730;2023-03-31T04:33:12;145234.63;;;11.03;100.00
47530;BME280;33272;51.922;7.730;2023-03-31T04:35:40;145237.19;;;11.04;100.00
47530;BME280;33272;51.922;7.730;2023-03-31T04:38:21;145234.63;;;11.03;100.00
47530;BME280;33272;51.922;7.730;2023-03-31T04:40:50;145221.97;;;10.98;100.00
47530;BME280;33272;51.922;7.730;2023-03-31T04:43:19;145223.22;;;10.98;100.00
47530;BME280;33272;51.922;7.730;2023-03-31T04:45:46;145224.50;;;10.99;100.00
47530;BME280;33272;51.922;7.730;2023-03-31T04:48:13;145227.00;;;11.00;100.00
47530;BME280;33272;51.922;7.730;2023-03-31T04:50:40;145227.00;;;11.00;100.00
47530;BME280;33272;51.922;7.730;2023-03-31T04:53:07;145224.50;;;10.99;100.00
47530;BME280;33272;51.922;7.730;2023-03-31T04:55:36;145223.22;;;10.98;100.00
47530;BME280;33272;51.922;7.730;2023-03-31T04:58:03;145221.97;;;10.98;100.00
47530;BME280;33272;51.922;7.730;2023-03-31T05:00:30;145223.22;;;10.98;100.00
47530;BME280;33272;51.922;7.730;2023-03-31T05:02:58;145221.97;;;10.98;100.00
47530;BME280;33272;51.922;7.730;2023-03-31T05:05:26;145221.97;;;10.98;100.00
47530;BME280;33272;51.922;7.730;2023-03-31T05:07:53;145223.22;;;10.98;100.00
47530;BME280;33272;51.922;7.730;2023-03-31T05:10:21;145220.72;;;10.97;100.00
47530;BME280;33272;51.922;7.730;2023-03-31T05:12:49;145221.97;;;10.98;100.00
47530;BME280;33272;51.922;7.730;2023-03-31T05:15:16;145218.16;;;10.96;100.00
47530;BME280;33272;51.922;7.730;2023-03-31T05:17:44;145224.50;;;10.99;100.00
47530;BME280;33272;51.922;7.730;2023-03-31T05:20:12;145229.59;;;11.01;100.00
47530;BME280;33272;51.922;7.730;2023-03-31T05:22:39;145233.38;;;11.02;100.00
47530;BME280;33272;51.922;7.730;2023-03-31T05:25:08;145233.38;;;11.02;100.00
47530;BME280;33272;51.922;7.730;2023-03-31T05:27:37;145235.88;;;11.03;100.00
47530;BME280;33272;51.922;7.730;2023-03-31T05:30:07;145233.38;;;11.02;100.00
47530;BME280;33272;51.922;7.730;2023-03-31T05:32:34;145233.38;;;11.02;100.00
47530;BME280;33272;51.922;7.730;2023-03-31T05:35:01;145237.19;;;11.04;100.00
47530;BME280;33272;51.922;7.730;2023-03-31T05:37:28;145237.19;;;11.04;100.00
47530;BME280;33272;51.922;7.730;2023-03-31T05:39:56;145238.44;;;11.04;100.00
47530;BME280;33272;51.922;7.730;2023-03-31T05:42:23;145246.06;;;11.07;100.00
47530;BME280;33272;51.922;7.730;2023-03-31T05:44:50;145240.97;;;11.05;100.00
47530;BME280;33272;51.922;7.730;2023-03-31T05:47:19;145253.66;;;11.10;100.00
47530;BME280;33272;51.922;7.730;2023-03-31T05:49:48;145261.28;;;11.13;100.00
47530;BME280;33272;51.922;7.730;2023-03-31T05:52:15;145265.06;;;11.15;100.00
47530;BME280;33272;51.922;7.730;2023-03-31T05:54:42;145271.41;;;11.18;100.00
47530;BME280;33272;51.922;7.730;2023-03-31T05:57:10;145275.22;;;11.19;100.00
47530;BME280;33272;51.922;7.730;2023-03-31T05:59:37;145276.50;;;11.20;100.00
47530;BME280;33272;51.922;7.730;2023-03-31T06:02:07;145280.28;;;11.21;100.00
47530;BME280;33272;51.922;7.730;2023-03-31T06:04:36;145284.09;;;11.23;100.00
47530;BME280;33272;51.922;7.730;2023-03-31T06:07:03;145285.38;;;11.23;100.00
47530;BME280;33272;51.922;7.730;2023-03-31T06:09:31;145286.63;;;11.24;100.00
47530;BME280;33272;51.922;7.730;2023-03-31T06:11:58;145287.88;;;11.24;100.00
47530;BME280;33272;51.922;7.730;2023-03-31T06:14:26;145287.88;;;11.24;100.00
47530;BME280;33272;51.922;7.730;2023-03-31T06:16:53;145295.50;;;11.27;100.00
47530;BME280;33272;51.922;7.730;2023-03-31T06:19:20;145303.09;;;11.30;100.00
47530;BME280;33272;51.922;7.730;2023-03-31T06:21:49;145313.25;;;11.34;100.00
47530;BME280;33272;51.922;7.730;2023-03-31T06:24:15;145324.69;;;11.39;100.00
47530;BME280;33272;51.922;7.730;2023-03-31T06:26:42;145341.16;;;11.46;100.00
47530;BME280;33272;51.922;7.730;2023-03-31T06:29:09;145357.66;;;11.52;100.00
47530;BME280;33272;51.922;7.730;2023-03-31T06:31:36;145371.63;;;11.58;100.00
47530;BME280;33272;51.922;7.730;2023-03-31T06:34:03;145391.88;;;11.66;100.00
47530;BME280;33272;51.922;7.730;2023-03-31T06:36:31;145407.09;;;11.72;100.00
47530;BME280;33272;51.922;7.730;2023-03-31T06:38:59;145429.94;;;11.81;100.00
47530;BME280;33272;51.922;7.730;2023-03-31T06:41:26;145452.84;;;11.91;100.00
47530;BME280;33272;51.922;7.730;2023-03-31T06:43:53;145483.28;;;12.03;100.00
47530;BME280;33272;51.922;7.730;2023-03-31T06:46:20;145501.03;;;12.10;100.00
47530;BME280;33272;51.922;7.730;2023-03-31T06:48:47;145506.13;;;12.12;100.00
47530;BME280;33272;51.922;7.730;2023-03-31T06:51:15;145517.53;;;12.17;100.00
47530;BME280;33272;51.922;7.730;2023-03-31T06:53:42;145523.91;;;12.19;100.00
47530;BME280;33272;51.922;7.730;2023-03-31T06:56:10;145531.50;;;12.22;100.00
47530;BME280;33272;51.922;7.730;2023-03-31T06:58:37;145529.00;;;12.21;100.00
47530;BME280;33272;51.922;7.730;2023-03-31T07:01:05;145540.38;;;12.26;100.00
47530;BME280;33272;51.922;7.730;2023-03-31T07:03:32;145546.75;;;12.28;100.00
47530;BME280;33272;51.922;7.730;2023-03-31T07:05:59;145555.63;;;12.32;100.00
47530;BME280;33272;51.922;7.730;2023-03-31T07:08:27;145563.25;;;12.35;100.00
47530;BME280;33272;51.922;7.730;2023-03-31T07:10:56;145569.59;;;12.38;100.00
47530;BME280;33272;51.922;7.730;2023-03-31T07:13:26;145584.81;;;12.44;100.00
47530;BME280;33272;51.922;7.730;2023-03-31T07:15:53;145570.84;;;12.38;100.00
47530;BME280;33272;51.922;7.730;2023-03-31T07:18:21;145570.84;;;12.38;100.00
47530;BME280;33272;51.922;7.730;2023-03-31T07:20:51;145567.06;;;12.37;100.00
47530;BME280;33272;51.922;7.730;2023-03-31T07:23:18;145556.94;;;12.33;100.00
47530;BME280;33272;51.922;7.730;2023-03-31T07:25:46;145544.22;;;12.27;100.00
47530;BME280;33272;51.922;7.730;2023-03-31T07:28:13;145551.84;;;12.31;100.00
47530;BME280;33272;51.922;7.730;2023-03-31T07:30:42;145551.84;;;12.31;100.00
47530;BME280;33272;51.922;7.730;2023-03-31T07:33:09;145556.94;;;12.33;100.00
47530;BME280;33272;51.922;7.730;2023-03-31T07:35:38;145540.38;;;12.26;100.00
47530;BME280;33272;51.922;7.730;2023-03-31T07:38:07;145553.09;;;12.31;100.00
47530;BME280;33272;51.922;7.730;2023-03-31T07:40:35;145546.75;;;12.28;100.00
47530;BME280;33272;51.922;7.730;2023-03-31T07:43:02;145539.13;;;12.25;100.00
47530;BME280;33272;51.922;7.730;2023-03-31T07:45:30;145507.41;;;12.13;100.00
47530;BME280;33272;51.922;7.730;2023-03-31T07:47:59;145480.78;;;12.02;100.00
47530;BME280;33272;51.922;7.730;2023-03-31T07:50:26;145460.44;;;11.94;100.00
47530;BME280;33272;51.922;7.730;2023-03-31T07:52:53;145459.19;;;11.93;100.00
47530;BME280;33272;51.922;7.730;2023-03-31T07:55:20;145451.56;;;11.90;100.00
47530;BME280;33272;51.922;7.730;2023-03-31T07:57:48;145440.19;;;11.86;100.00
47530;BME280;33272;51.922;7.730;2023-03-31T08:00:17;145413.47;;;11.75;100.00
47530;BME280;33272;51.922;7.730;2023-03-31T08:02:45;145435.03;;;11.83;100.00
47530;BME280;33272;51.922;7.730;2023-03-31T08:05:16;145384.25;;;11.63;100.00
47530;BME280;33272;51.922;7.730;2023-03-31T08:07:46;145399.50;;;11.69;100.00
47530;BME280;33272;51.922;7.730;2023-03-31T08:10:16;145395.72;;;11.68;100.00
47530;BME280;33272;51.922;7.730;2023-03-31T08:12:43;145407.09;;;11.72;100.00
47530;BME280;33272;51.922;7.730;2023-03-31T08:15:11;145390.63;;;11.66;100.00
47530;BME280;33272;51.922;7.730;2023-03-31T08:17:39;145396.97;;;11.68;100.00
47530;BME280;33272;51.922;7.730;2023-03-31T08:20:07;145381.75;;;11.62;100.00
47530;BME280;33272;51.922;7.730;2023-03-31T08:22:36;145438.88;;;11.85;100.00
47530;BME280;33272;51.922;7.730;2023-03-31T08:25:05;145465.53;;;11.96;100.00
47530;BME280;33272;51.922;7.730;2023-03-31T08:27:33;145460.44;;;11.94;100.00
47530;BME280;33272;51.922;7.730;2023-03-31T08:30:00;145482.03;;;12.02;100.00
47530;BME280;33272;51.922;7.730;2023-03-31T08:32:30;145507.41;;;12.13;100.00
47530;BME280;33272;51.922;7.730;2023-03-31T08:34:57;145544.22;;;12.27;100.00
47530;BME280;33272;51.922;7.730;2023-03-31T08:37:24;145567.06;;;12.37;100.00
47530;BME280;33272;51.922;7.730;2023-03-31T08:39:54;145577.22;;;12.41;100.00
47530;BME280;33272;51.922;7.730;2023-03-31T08:42:28;145608.94;;;12.53;100.00
47530;BME280;33272;51.922;7.730;2023-03-31T08:45:02;145584.81;;;12.44;100.00
47530;BME280;33272;51.922;7.730;2023-03-31T08:47:32;145615.31;;;12.56;100.00
47530;BME280;33272;51.922;7.730;2023-03-31T08:50:05;145607.69;;;12.53;100.00
47530;BME280;33272;51.922;7.730;2023-03-31T08:52:41;145570.84;;;12.38;100.00
47530;BME280;33272;51.922;7.730;2023-03-31T08:55:16;145600.06;;;12.50;100.00
47530;BME280;33272;51.922;7.730;2023-03-31T08:57:53;145631.81;;;12.63;100.00
47530;BME280;33272;51.922;7.730;2023-03-31T09:00:22;145603.91;;;12.51;100.00
47530;BME280;33272;51.922;7.730;2023-03-31T09:02:55;145619.09;;;12.58;100.00
47530;BME280;33272;51.922;7.730;2023-03-31T09:05:43;145616.56;;;12.57;100.00
47530;BME280;33272;51.922;7.730;2023-03-31T09:08:19;145626.72;;;12.61;100.00
47530;BME280;33272;51.922;7.730;2023-03-31T09:10:54;145641.94;;;12.67;100.00
47530;BME280;33272;51.922;7.730;2023-03-31T09:14:14;145636.91;;;12.65;100.00
47530;BME280;33272;51.922;7.730;2023-03-31T09:16:49;145720.66;;;12.98;100.00
47530;BME280;33272;51.922;7.730;2023-03-31T09:19:32;145667.38;;;12.77;100.00
47530;BME280;33272;51.922;7.730;2023-03-31T09:22:02;145685.13;;;12.84;100.00
47530;BME280;33272;51.922;7.730;2023-03-31T09:24:35;145634.31;;;12.64;100.00
47530;BME280;33272;51.922;7.730;2023-03-31T09:27:11;145574.69;;;12.40;100.00
47530;BME280;33272;51.922;7.730;2023-03-31T09:29:42;145574.69;;;12.40;100.00
47530;BME280;33272;51.922;7.730;2023-03-31T09:32:15;145551.84;;;12.31;100.00
47530;BME280;33272;51.922;7.730;2023-03-31T09:34:44;145554.38;;;12.32;100.00
47530;BME280;33272;51.922;7.730;2023-03-31T09:37:12;145565.81;;;12.36;100.00
47530;BME280;33272;51.922;7.730;2023-03-31T09:39:40;145564.50;;;12.36;100.00
47530;BME280;33272;51.922;7.730;2023-03-31T09:42:11;145589.94;;;12.46;100.00
47530;BME280;33272;51.922;7.730;2023-03-31T09:44:40;145607.69;;;12.53;100.00
47530;BME280;33272;51.922;7.730;2023-03-31T09:47:15;145581.03;;;12.42;100.00
47530;BME280;33272;51.922;7.730;2023-03-31T09:49:45;145598.81;;;12.49;100.00
47530;BME280;33272;51.922;7.730;2023-03-31T09:52:22;145593.72;;;12.47;100.00
47530;BME280;33272;51.922;7.730;2023-03-31T09:54:53;145606.41;;;12.52;100.00
47530;BME280;33272;51.922;7.730;2023-03-31T09:57:28;145587.34;;;12.45;100.00
47530;BME280;33272;51.922;7.730;2023-03-31T10:00:04;145579.72;;;12.42;100.00
47530;BME280;33272;51.922;7.730;2023-03-31T10:02:38;145577.22;;;12.41;100.00
47530;BME280;33272;51.922;7.730;2023-03-31T10:05:23;145597.53;;;12.49;100.00
47530;BME280;33272;51.922;7.730;2023-03-31T10:07:52;145582.31;;;12.43;100.00
47530;BME280;33272;51.922;7.730;2023-03-31T10:10:27;145584.81;;;12.44;100.00
47530;BME280;33272;51.922;7.730;2023-03-31T10:12:59;145602.59;;;12.51;100.00
47530;BME280;33272;51.922;7.730;2023-03-31T10:15:28;145615.31;;;12.56;100.00
47530;BME280;33272;51.922;7.730;2023-03-31T10:17:57;145635.63;;;12.64;100.00
47530;BME280;33272;51.922;7.730;2023-03-31T10:20:33;145654.66;;;12.72;100.00
47530;BME280;33272;51.922;7.730;2023-03-31T10:23:15;145678.78;;;12.82;100.00
47530;BME280;33272;51.922;7.730;2023-03-31T10:25:43;145694.03;;;12.88;100.00
47530;BME280;33272;51.922;7.730;2023-03-31T10:28:16;145706.75;;;12.93;100.00
47530;BME280;33272;51.922;7.730;2023-03-31T10:30:48;145713.03;;;12.95;100.00
47530;BME280;33272;51.922;7.730;2023-03-31T10:33:18;145733.38;;;13.04;100.00
47530;BME280;33272;51.922;7.730;2023-03-31T10:35:53;145760.03;;;13.14;100.00
47530;BME280;33272;51.922;7.730;2023-03-31T10:38:25;145767.66;;;13.17;100.00
47530;BME280;33272;51.922;7.730;2023-03-31T10:40:55;145810.91;;;13.35;100.00
47530;BME280;33272;51.922;7.730;2023-03-31T10:43:28;145850.31;;;13.51;100.00
47530;BME280;33272;51.922;7.730;2023-03-31T10:45:59;145874.44;;;13.60;100.00
47530;BME280;33272;51.922;7.730;2023-03-31T10:48:28;145885.84;;;13.65;100.00
47530;BME280;33272;51.922;7.730;2023-03-31T10:51:00;145907.47;;;13.74;100.00
47530;BME280;33272;51.922;7.730;2023-03-31T10:53:40;145904.94;;;13.73;100.00
47530;BME280;33272;51.922;7.730;2023-03-31T10:56:22;145936.72;;;13.85;100.00
47530;BME280;33272;51.922;7.730;2023-03-31T10:59:31;145964.69;;;13.97;100.00
47530;BME280;33272;51.922;7.730;2023-03-31T11:02:20;146010.41;;;14.15;100.00
47530;BME280;33272;51.922;7.730;2023-03-31T11:05:00;146098.16;;;14.50;100.00
47530;BME280;33272;51.922;7.730;2023-03-31T11:07:44;146089.22;;;14.47;100.00
47530;BME280;33272;51.922;7.730;2023-03-31T11:10:33;146091.78;;;14.48;100.00
47530;BME280;33272;51.922;7.730;2023-03-31T11:13:09;146058.75;;;14.34;100.00
47530;BME280;33272;51.922;7.730;2023-03-31T11:15:47;146096.84;;;14.50;100.00
47530;BME280;33272;51.922;7.730;2023-03-31T11:18:39;146154.16;;;14.73;100.00
47530;BME280;33272;51.922;7.730;2023-03-31T11:21:19;146206.28;;;14.94;100.00
47530;BME280;33272;51.922;7.730;2023-03-31T11:23:58;146208.84;;;14.95;100.00
47530;BME280;33272;51.922;7.730;2023-03-31T11:26:37;146259.72;;;15.15;100.00
47530;BME280;33272;51.922;7.730;2023-03-31T11:29:26;146244.44;;;15.09;100.00
47530;BME280;33272;51.922;7.730;2023-03-31T11:32:15;146221.53;;;15.00;100.00
47530;BME280;33272;51.922;7.730;2023-03-31T11:35:02;146210.13;;;14.95;100.00
47530;BME280;33272;51.922;7.730;2023-03-31T11:37:49;146216.47;;;14.98;100.00
47530;BME280;33272;51.922;7.730;2023-03-31T11:43:25;146287.72;;;15.26;100.00
47530;BME280;33272;51.922;7.730;2023-03-31T11:46:00;146364.03;;;15.57;100.00
47530;BME280;33272;51.922;7.730;2023-03-31T11:48:38;146350.06;;;15.51;100.00
47530;BME280;33272;51.922;7.730;2023-03-31T11:51:13;146411.16;;;15.76;100.00
47530;BME280;33272;51.922;7.730;2023-03-31T11:53:44;146453.22;;;15.93;100.00
47530;BME280;33272;51.922;7.730;2023-03-31T11:56:13;146457.00;;;15.94;100.00
47530;BME280;33272;51.922;7.730;2023-03-31T11:58:45;146532.13;;;16.25;100.00
47530;BME280;33272;51.922;7.730;2023-03-31T12:01:19;146591.94;;;16.49;100.00
47530;BME280;33272;51.922;7.730;2023-03-31T12:03:56;146650.56;;;16.72;100.00
47530;BME280;33272;51.922;7.730;2023-03-31T12:06:30;146655.69;;;16.74;100.00
47530;BME280;33272;51.922;7.730;2023-03-31T12:09:09;146538.50;;;16.27;100.00
47530;BME280;33272;51.922;7.730;2023-03-31T12:11:41;146483.75;;;16.05;100.00
47530;BME280;33272;51.922;7.730;2023-03-31T12:14:27;146492.66;;;16.09;100.00
47530;BME280;33272;51.922;7.730;2023-03-31T12:16:59;146477.38;;;16.03;100.00
47530;BME280;33272;51.922;7.730;2023-03-31T12:19:35;146385.69;;;15.66;100.00
47530;BME280;33272;51.922;7.730;2023-03-31T12:22:12;146341.16;;;15.48;100.00
47530;BME280;33272;51.922;7.730;2023-03-31T12:24:41;146258.44;;;15.15;100.00
47530;BME280;33272;51.922;7.730;2023-03-31T12:27:14;146028.22;;;14.22;100.00
47530;BME280;33272;51.922;7.730;2023-03-31T12:29:45;145986.25;;;14.05;100.00
47530;BME280;33272;51.922;7.730;2023-03-31T12:32:16;145897.31;;;13.70;100.00
47530;BME280;33272;51.922;7.730;2023-03-31T12:34:50;145953.22;;;13.92;100.00
47530;BME280;33272;51.922;7.730;2023-03-31T12:37:59;145922.72;;;13.80;100.00
47530;BME280;33272;51.922;7.730;2023-03-31T12:40:41;146028.22;;;14.22;100.00
47530;BME280;33272;51.922;7.730;2023-03-31T12:43:51;146034.56;;;14.25;100.00
47530;BME280;33272;51.922;7.730;2023-03-31T12:46:59;146057.44;;;14.34;100.00
47530;BME280;33272;51.922;7.730;2023-03-31T12:49:51;146141.44;;;14.68;100.00
47530;BME280;33272;51.922;7.730;2023-03-31T12:52:25;146146.53;;;14.70;100.00
47530;BME280;33272;51.922;7.730;2023-03-31T12:55:22;146099.47;;;14.51;100.00
47530;BME280;33272;51.922;7.730;2023-03-31T12:58:35;146093.06;;;14.48;100.00
47530;BME280;33272;51.922;7.730;2023-03-31T13:01:06;146118.53;;;14.58;100.00
47530;BME280;33272;51.922;7.730;2023-03-31T13:03:53;146096.84;;;14.50;100.00
47530;BME280;33272;51.922;7.730;2023-03-31T13:06:57;146095.59;;;14.49;100.00
47530;BME280;33272;51.922;7.730;2023-03-31T13:09:46;146095.59;;;14.49;100.00
47530;BME280;33272;51.922;7.730;2023-03-31T13:12:19;146155.41;;;14.73;100.00
47530;BME280;33272;51.922;7.730;2023-03-31T13:14:49;146175.75;;;14.81;100.00
47530;BME280;33272;51.922;7.730;2023-03-31T13:17:27;146159.22;;;14.75;100.00
47530;BME280;33272;51.922;7.730;2023-03-31T13:19:56;146166.84;;;14.78;100.00
47530;BME280;33272;51.922;7.730;2023-03-31T13:22:45;146164.31;;;14.77;100.00
47530;BME280;33272;51.922;7.730;2023-03-31T13:25:40;146138.91;;;14.67;100.00
47530;BME280;33272;51.922;7.730;2023-03-31T13:28:38;146171.94;;;14.80;100.00
47530;BME280;33272;51.922;7.730;2023-03-31T13:31:08;146197.38;;;14.90;100.00